Roby, Texas
Current Conditions -  °F | °C
As of 9:55 AM on Friday 24 Oct 2014 (Local Time) from KSWW Reporting Station
Clear Clear  
Wind Chill: 67°   Ceiling: Unl
Heat Index: 67°   Visibility: 10mi
Dew Point: 63°   Wind: 10mph
Humidity: 85%   Direction: 220°SW
Pressure: 30.21"   Gusts: NA
Location:  32.74°N, 100.38°W
Report Text: KSWW 241455Z AUTO 22009KT 10SM CLR 20/17 A3021 RMK AO2 T01970172
Loading
Personal Weather Stations






























Interactive Weather Map
Tropical Storm Tracking
New forecast layout! Learn more

10-Day Weather Forecast

Advertisements
Track Severe Weather on mobile